sensor_id;sensor_type;location;lat;lon;timestamp;temperature;humidity
18894;DHT22;9579;49.488;8.226;2024-02-28T00:05:24;7.90;99.90
18894;DHT22;9579;49.488;8.226;2024-02-28T00:08:19;8.40;99.90
18894;DHT22;9579;49.488;8.226;2024-02-28T00:11:23;8.60;99.90
18894;DHT22;9579;49.488;8.226;2024-02-28T00:14:42;7.90;99.90
18894;DHT22;9579;49.488;8.226;2024-02-28T00:17:33;7.60;99.90
18894;DHT22;9579;49.488;8.226;2024-02-28T00:21:01;7.30;99.90
18894;DHT22;9579;49.488;8.226;2024-02-28T00:26:26;8.80;99.90
18894;DHT22;9579;49.488;8.226;2024-02-28T00:29:14;10.10;99.90
18894;DHT22;9579;49.488;8.226;2024-02-28T00:32:09;10.00;99.90
18894;DHT22;9579;49.488;8.226;2024-02-28T00:35:08;8.80;99.90
18894;DHT22;9579;49.488;8.226;2024-02-28T00:41:57;8.20;99.90
18894;DHT22;9579;49.488;8.226;2024-02-28T00:44:54;9.30;99.90
18894;DHT22;9579;49.488;8.226;2024-02-28T00:48:02;7.80;99.90
18894;DHT22;9579;49.488;8.226;2024-02-28T00:50:53;6.90;99.90
18894;DHT22;9579;49.488;8.226;2024-02-28T01:12:15;8.10;99.90
18894;DHT22;9579;49.488;8.226;2024-02-28T01:18:27;7.20;99.90
18894;DHT22;9579;49.488;8.226;2024-02-28T01:21:36;6.80;99.90
18894;DHT22;9579;49.488;8.226;2024-02-28T01:24:36;8.80;99.90
18894;DHT22;9579;49.488;8.226;2024-02-28T01:27:43;8.20;99.90
18894;DHT22;9579;49.488;8.226;2024-02-28T01:30:50;7.50;99.90
18894;DHT22;9579;49.488;8.226;2024-02-28T01:33:47;7.80;99.90
18894;DHT22;9579;49.488;8.226;2024-02-28T01:36:43;6.90;99.90
18894;DHT22;9579;49.488;8.226;2024-02-28T01:45:23;8.40;99.90
18894;DHT22;9579;49.488;8.226;2024-02-28T01:48:12;7.60;99.90
18894;DHT22;9579;49.488;8.226;2024-02-28T01:51:16;7.40;99.90
18894;DHT22;9579;49.488;8.226;2024-02-28T01:54:15;6.30;99.90
18894;DHT22;9579;49.488;8.226;2024-02-28T01:57:10;7.20;99.90
18894;DHT22;9579;49.488;8.226;2024-02-28T02:00:13;7.20;99.90
18894;DHT22;9579;49.488;8.226;2024-02-28T02:03:12;6.80;99.90
18894;DHT22;9579;49.488;8.226;2024-02-28T02:06:41;6.90;99.90
18894;DHT22;9579;49.488;8.226;2024-02-28T02:09:51;6.20;99.90
18894;DHT22;9579;49.488;8.226;2024-02-28T02:13:03;6.60;99.90
18894;DHT22;9579;49.488;8.226;2024-02-28T02:16:09;8.00;99.90
18894;DHT22;9579;49.488;8.226;2024-02-28T02:19:05;7.00;99.90
18894;DHT22;9579;49.488;8.226;2024-02-28T02:22:24;7.50;99.90
18894;DHT22;9579;49.488;8.226;2024-02-28T02:25:57;7.30;99.90
18894;DHT22;9579;49.488;8.226;2024-02-28T02:28:49;7.50;99.90
18894;DHT22;9579;49.488;8.226;2024-02-28T02:31:45;8.40;99.90
18894;DHT22;9579;49.488;8.226;2024-02-28T02:34:37;7.50;99.90
18894;DHT22;9579;49.488;8.226;2024-02-28T02:37:31;7.20;99.90
18894;DHT22;9579;49.488;8.226;2024-02-28T02:40:54;6.60;99.90
18894;DHT22;9579;49.488;8.226;2024-02-28T02:43:48;6.60;99.90
18894;DHT22;9579;49.488;8.226;2024-02-28T02:46:44;6.50;99.90
18894;DHT22;9579;49.488;8.226;2024-02-28T03:07:53;8.00;99.90
18894;DHT22;9579;49.488;8.226;2024-02-28T03:11:05;8.10;99.90
18894;DHT22;9579;49.488;8.226;2024-02-28T03:14:02;6.80;99.90
18894;DHT22;9579;49.488;8.226;2024-02-28T03:17:15;6.60;99.90
18894;DHT22;9579;49.488;8.226;2024-02-28T03:20:13;7.60;99.90
18894;DHT22;9579;49.488;8.226;2024-02-28T03:23:13;6.60;99.90
18894;DHT22;9579;49.488;8.226;2024-02-28T03:26:17;6.10;99.90
18894;DHT22;9579;49.488;8.226;2024-02-28T03:29:26;9.20;99.90
18894;DHT22;9579;49.488;8.226;2024-02-28T03:32:24;7.70;99.90
18894;DHT22;9579;49.488;8.226;2024-02-28T03:35:17;7.70;99.90
18894;DHT22;9579;49.488;8.226;2024-02-28T03:39:04;8.00;99.90
18894;DHT22;9579;49.488;8.226;2024-02-28T03:41:59;6.70;99.90
18894;DHT22;9579;49.488;8.226;2024-02-28T03:45:08;7.00;99.90
18894;DHT22;9579;49.488;8.226;2024-02-28T03:48:14;6.30;99.90
18894;DHT22;9579;49.488;8.226;2024-02-28T03:54:34;7.10;99.90
18894;DHT22;9579;49.488;8.226;2024-02-28T03:57:21;8.80;99.90
18894;DHT22;9579;49.488;8.226;2024-02-28T04:00:10;8.00;99.90
18894;DHT22;9579;49.488;8.226;2024-02-28T04:02:57;7.70;99.90
18894;DHT22;9579;49.488;8.226;2024-02-28T04:05:44;8.30;99.90
18894;DHT22;9579;49.488;8.226;2024-02-28T04:08:32;8.30;99.90
18894;DHT22;9579;49.488;8.226;2024-02-28T04:11:21;8.80;99.90
18894;DHT22;9579;49.488;8.226;2024-02-28T04:14:08;7.70;99.90
18894;DHT22;9579;49.488;8.226;2024-02-28T04:16:56;7.70;99.90
18894;DHT22;9579;49.488;8.226;2024-02-28T04:19:43;9.20;99.90
18894;DHT22;9579;49.488;8.226;2024-02-28T04:22:31;8.60;99.90
18894;DHT22;9579;49.488;8.226;2024-02-28T04:25:18;7.70;99.90
18894;DHT22;9579;49.488;8.226;2024-02-28T04:28:06;7.80;99.90
18894;DHT22;9579;49.488;8.226;2024-02-28T04:30:55;7.80;99.90
18894;DHT22;9579;49.488;8.226;2024-02-28T04:33:42;7.80;99.90
18894;DHT22;9579;49.488;8.226;2024-02-28T04:36:29;7.80;99.90
18894;DHT22;9579;49.488;8.226;2024-02-28T04:39:16;7.80;99.90
18894;DHT22;9579;49.488;8.226;2024-02-28T04:42:03;7.70;99.90
18894;DHT22;9579;49.488;8.226;2024-02-28T04:44:52;7.60;99.90
18894;DHT22;9579;49.488;8.226;2024-02-28T04:47:39;7.60;99.90
18894;DHT22;9579;49.488;8.226;2024-02-28T04:50:26;7.60;99.90
18894;DHT22;9579;49.488;8.226;2024-02-28T04:53:13;7.60;99.90
18894;DHT22;9579;49.488;8.226;2024-02-28T04:56:00;7.60;99.90
18894;DHT22;9579;49.488;8.226;2024-02-28T04:58:47;7.50;99.90
18894;DHT22;9579;49.488;8.226;2024-02-28T05:01:35;7.40;99.90
18894;DHT22;9579;49.488;8.226;2024-02-28T05:04:24;7.50;99.90
18894;DHT22;9579;49.488;8.226;2024-02-28T05:07:12;7.40;99.90
18894;DHT22;9579;49.488;8.226;2024-02-28T05:09:59;7.30;99.90
18894;DHT22;9579;49.488;8.226;2024-02-28T05:12:46;7.40;99.90
18894;DHT22;9579;49.488;8.226;2024-02-28T05:15:33;7.40;99.90
18894;DHT22;9579;49.488;8.226;2024-02-28T05:18:21;7.40;99.90
18894;DHT22;9579;49.488;8.226;2024-02-28T05:21:08;7.30;99.90
18894;DHT22;9579;49.488;8.226;2024-02-28T05:23:55;7.30;99.90
18894;DHT22;9579;49.488;8.226;2024-02-28T05:26:42;7.20;99.90
18894;DHT22;9579;49.488;8.226;2024-02-28T05:29:29;7.30;99.90
18894;DHT22;9579;49.488;8.226;2024-02-28T05:32:16;7.30;99.90
18894;DHT22;9579;49.488;8.226;2024-02-28T05:35:06;7.30;99.90
18894;DHT22;9579;49.488;8.226;2024-02-28T05:37:53;7.20;99.90
18894;DHT22;9579;49.488;8.226;2024-02-28T05:40:41;7.10;99.90
18894;DHT22;9579;49.488;8.226;2024-02-28T05:43:28;7.00;99.90
18894;DHT22;9579;49.488;8.226;2024-02-28T05:46:16;7.00;99.90
18894;DHT22;9579;49.488;8.226;2024-02-28T05:49:03;6.70;99.90
18894;DHT22;9579;49.488;8.226;2024-02-28T05:51:52;6.60;99.90
18894;DHT22;9579;49.488;8.226;2024-02-28T05:54:40;6.70;99.90
18894;DHT22;9579;49.488;8.226;2024-02-28T05:57:27;6.70;99.90
18894;DHT22;9579;49.488;8.226;2024-02-28T06:00:14;6.80;99.90
18894;DHT22;9579;49.488;8.226;2024-02-28T06:03:01;6.80;99.90
18894;DHT22;9579;49.488;8.226;2024-02-28T06:05:49;6.70;99.90
18894;DHT22;9579;49.488;8.226;2024-02-28T06:08:38;6.40;99.90
18894;DHT22;9579;49.488;8.226;2024-02-28T06:11:25;6.30;99.90
18894;DHT22;9579;49.488;8.226;2024-02-28T06:14:12;6.30;99.90
18894;DHT22;9579;49.488;8.226;2024-02-28T06:16:59;6.20;99.90
18894;DHT22;9579;49.488;8.226;2024-02-28T06:19:47;6.30;99.90
18894;DHT22;9579;49.488;8.226;2024-02-28T06:22:34;6.20;99.90
18894;DHT22;9579;49.488;8.226;2024-02-28T06:25:22;6.10;99.90
18894;DHT22;9579;49.488;8.226;2024-02-28T06:28:10;6.20;99.90
18894;DHT22;9579;49.488;8.226;2024-02-28T06:30:57;6.30;99.90
18894;DHT22;9579;49.488;8.226;2024-02-28T06:33:44;6.40;99.90
18894;DHT22;9579;49.488;8.226;2024-02-28T06:36:31;6.40;99.90
18894;DHT22;9579;49.488;8.226;2024-02-28T06:39:18;6.30;99.90
18894;DHT22;9579;49.488;8.226;2024-02-28T06:42:07;6.40;99.90
18894;DHT22;9579;49.488;8.226;2024-02-28T06:44:54;6.40;99.90
18894;DHT22;9579;49.488;8.226;2024-02-28T06:47:41;6.60;99.90
18894;DHT22;9579;49.488;8.226;2024-02-28T06:50:30;6.80;99.90
18894;DHT22;9579;49.488;8.226;2024-02-28T06:53:17;6.90;99.90
18894;DHT22;9579;49.488;8.226;2024-02-28T06:56:05;7.00;99.90
18894;DHT22;9579;49.488;8.226;2024-02-28T06:58:53;7.10;99.90
18894;DHT22;9579;49.488;8.226;2024-02-28T07:01:40;7.20;99.90
18894;DHT22;9579;49.488;8.226;2024-02-28T07:04:27;7.40;99.90
18894;DHT22;9579;49.488;8.226;2024-02-28T07:07:14;7.60;99.90
18894;DHT22;9579;49.488;8.226;2024-02-28T07:10:03;7.80;99.90
18894;DHT22;9579;49.488;8.226;2024-02-28T07:12:54;8.10;99.90
18894;DHT22;9579;49.488;8.226;2024-02-28T07:31:13;9.30;99.90
18894;DHT22;9579;49.488;8.226;2024-02-28T07:35:22;9.60;99.90
18894;DHT22;9579;49.488;8.226;2024-02-28T07:38:03;10.00;99.90
18894;DHT22;9579;49.488;8.226;2024-02-28T07:40:57;10.20;99.90
18894;DHT22;9579;49.488;8.226;2024-02-28T07:43:44;10.50;99.90
18894;DHT22;9579;49.488;8.226;2024-02-28T07:46:31;10.70;99.90
18894;DHT22;9579;49.488;8.226;2024-02-28T07:49:18;10.90;99.90
18894;DHT22;9579;49.488;8.226;2024-02-28T07:52:06;11.00;99.90
18894;DHT22;9579;49.488;8.226;2024-02-28T07:54:53;11.20;99.90
18894;DHT22;9579;49.488;8.226;2024-02-28T07:57:41;11.10;99.90
18894;DHT22;9579;49.488;8.226;2024-02-28T08:00:28;11.10;99.90
18894;DHT22;9579;49.488;8.226;2024-02-28T08:03:15;11.10;99.90
18894;DHT22;9579;49.488;8.226;2024-02-28T08:06:03;11.20;99.90
18894;DHT22;9579;49.488;8.226;2024-02-28T08:08:51;11.40;99.90
18894;DHT22;9579;49.488;8.226;2024-02-28T08:11:38;11.50;99.90
18894;DHT22;9579;49.488;8.226;2024-02-28T08:14:27;11.50;99.90
18894;DHT22;9579;49.488;8.226;2024-02-28T08:17:14;11.50;99.90
18894;DHT22;9579;49.488;8.226;2024-02-28T08:20:01;11.60;99.90
18894;DHT22;9579;49.488;8.226;2024-02-28T08:22:48;11.70;99.90
18894;DHT22;9579;49.488;8.226;2024-02-28T08:25:38;11.80;99.90
18894;DHT22;9579;49.488;8.226;2024-02-28T08:28:25;11.80;99.90
18894;DHT22;9579;49.488;8.226;2024-02-28T08:31:13;11.70;99.90
18894;DHT22;9579;49.488;8.226;2024-02-28T08:34:00;11.50;99.90
18894;DHT22;9579;49.488;8.226;2024-02-28T08:36:50;11.40;99.90
18894;DHT22;9579;49.488;8.226;2024-02-28T08:39:37;11.50;99.90
18894;DHT22;9579;49.488;8.226;2024-02-28T08:42:24;11.60;99.90
18894;DHT22;9579;49.488;8.226;2024-02-28T08:45:11;11.60;99.90
18894;DHT22;9579;49.488;8.226;2024-02-28T08:48:00;11.60;99.90
18894;DHT22;9579;49.488;8.226;2024-02-28T08:50:47;11.60;99.90
18894;DHT22;9579;49.488;8.226;2024-02-28T08:53:35;11.80;99.90
18894;DHT22;9579;49.488;8.226;2024-02-28T08:56:22;11.80;99.90
18894;DHT22;9579;49.488;8.226;2024-02-28T08:59:09;11.90;99.90
18894;DHT22;9579;49.488;8.226;2024-02-28T09:01:56;12.30;99.90
18894;DHT22;9579;49.488;8.226;2024-02-28T09:04:44;12.50;99.90
18894;DHT22;9579;49.488;8.226;2024-02-28T09:07:31;12.80;99.90
18894;DHT22;9579;49.488;8.226;2024-02-28T09:10:21;13.10;99.60
18894;DHT22;9579;49.488;8.226;2024-02-28T09:13:09;13.40;99.20
18894;DHT22;9579;49.488;8.226;2024-02-28T09:15:58;13.50;98.60
18894;DHT22;9579;49.488;8.226;2024-02-28T09:18:45;13.60;98.20
18894;DHT22;9579;49.488;8.226;2024-02-28T09:21:33;13.70;98.20
18894;DHT22;9579;49.488;8.226;2024-02-28T09:24:21;13.70;98.00
18894;DHT22;9579;49.488;8.226;2024-02-28T09:27:08;13.70;98.30
18894;DHT22;9579;49.488;8.226;2024-02-28T09:29:56;13.60;98.50
18894;DHT22;9579;49.488;8.226;2024-02-28T09:32:43;13.60;98.60
18894;DHT22;9579;49.488;8.226;2024-02-28T09:35:30;13.30;98.20
18894;DHT22;9579;49.488;8.226;2024-02-28T09:38:19;13.10;99.00
18894;DHT22;9579;49.488;8.226;2024-02-28T09:41:06;13.20;99.00
18894;DHT22;9579;49.488;8.226;2024-02-28T09:43:53;13.00;99.10
18894;DHT22;9579;49.488;8.226;2024-02-28T09:46:41;12.80;99.40
18894;DHT22;9579;49.488;8.226;2024-02-28T09:49:31;12.80;99.60
18894;DHT22;9579;49.488;8.226;2024-02-28T09:52:18;12.70;99.70
18894;DHT22;9579;49.488;8.226;2024-02-28T09:55:07;12.60;99.90
18894;DHT22;9579;49.488;8.226;2024-02-28T09:57:55;12.70;99.90
18894;DHT22;9579;49.488;8.226;2024-02-28T10:00:44;12.70;99.90
18894;DHT22;9579;49.488;8.226;2024-02-28T10:03:32;12.80;99.90
18894;DHT22;9579;49.488;8.226;2024-02-28T10:06:20;13.10;99.70
18894;DHT22;9579;49.488;8.226;2024-02-28T10:09:07;13.40;98.70
18894;DHT22;9579;49.488;8.226;2024-02-28T10:11:57;13.60;98.50
18894;DHT22;9579;49.488;8.226;2024-02-28T10:14:44;13.60;98.40
18894;DHT22;9579;49.488;8.226;2024-02-28T10:17:31;13.50;98.90
18894;DHT22;9579;49.488;8.226;2024-02-28T10:20:18;13.40;98.70
18894;DHT22;9579;49.488;8.226;2024-02-28T10:25:44;14.00;98.70
18894;DHT22;9579;49.488;8.226;2024-02-28T10:28:36;14.40;97.90
18894;DHT22;9579;49.488;8.226;2024-02-28T10:31:23;14.90;98.10
18894;DHT22;9579;49.488;8.226;2024-02-28T10:34:10;15.40;97.10
18894;DHT22;9579;49.488;8.226;2024-02-28T10:36:57;15.60;96.10
18894;DHT22;9579;49.488;8.226;2024-02-28T10:39:45;15.80;96.50
18894;DHT22;9579;49.488;8.226;2024-02-28T10:42:32;16.00;95.80
18894;DHT22;9579;49.488;8.226;2024-02-28T10:45:22;16.20;96.00
18894;DHT22;9579;49.488;8.226;2024-02-28T10:48:13;16.50;95.40
18894;DHT22;9579;49.488;8.226;2024-02-28T10:51:03;16.70;94.80
18894;DHT22;9579;49.488;8.226;2024-02-28T10:53:59;16.60;94.10
18894;DHT22;9579;49.488;8.226;2024-02-28T10:56:49;16.60;94.50
18894;DHT22;9579;49.488;8.226;2024-02-28T10:59:37;16.80;95.00
18894;DHT22;9579;49.488;8.226;2024-02-28T11:02:27;16.70;94.20
18894;DHT22;9579;49.488;8.226;2024-02-28T11:05:14;17.00;94.10
18894;DHT22;9579;49.488;8.226;2024-02-28T11:08:01;17.30;93.10
18894;DHT22;9579;49.488;8.226;2024-02-28T11:10:54;17.40;93.00
18894;DHT22;9579;49.488;8.226;2024-02-28T11:13:51;17.50;93.30
18894;DHT22;9579;49.488;8.226;2024-02-28T11:16:38;17.50;92.60
18894;DHT22;9579;49.488;8.226;2024-02-28T11:19:30;17.40;92.40
18894;DHT22;9579;49.488;8.226;2024-02-28T11:22:18;17.00;92.00
18894;DHT22;9579;49.488;8.226;2024-02-28T11:25:07;16.90;93.00
18894;DHT22;9579;49.488;8.226;2024-02-28T11:27:54;16.80;92.60
18894;DHT22;9579;49.488;8.226;2024-02-28T11:30:41;16.80;92.60
18894;DHT22;9579;49.488;8.226;2024-02-28T11:33:28;17.00;92.10
18894;DHT22;9579;49.488;8.226;2024-02-28T11:36:17;17.10;92.30
18894;DHT22;9579;49.488;8.226;2024-02-28T11:39:06;17.10;92.00
18894;DHT22;9579;49.488;8.226;2024-02-28T11:41:53;16.70;91.60
18894;DHT22;9579;49.488;8.226;2024-02-28T11:44:41;16.90;92.70
18894;DHT22;9579;49.488;8.226;2024-02-28T11:47:28;16.90;91.40
18894;DHT22;9579;49.488;8.226;2024-02-28T11:50:15;17.20;92.30
18894;DHT22;9579;49.488;8.226;2024-02-28T11:53:05;17.50;92.00
18894;DHT22;9579;49.488;8.226;2024-02-28T11:55:52;17.70;91.40
18894;DHT22;9579;49.488;8.226;2024-02-28T11:58:49;17.80;91.10
18894;DHT22;9579;49.488;8.226;2024-02-28T12:01:37;17.90;90.40
18894;DHT22;9579;49.488;8.226;2024-02-28T12:04:24;17.90;89.20
18894;DHT22;9579;49.488;8.226;2024-02-28T12:07:12;18.10;90.20
18894;DHT22;9579;49.488;8.226;2024-02-28T12:10:00;17.50;89.10
18894;DHT22;9579;49.488;8.226;2024-02-28T12:12:47;17.20;89.40
18894;DHT22;9579;49.488;8.226;2024-02-28T12:15:35;17.50;89.40
18894;DHT22;9579;49.488;8.226;2024-02-28T12:18:22;17.40;90.40
18894;DHT22;9579;49.488;8.226;2024-02-28T12:21:09;17.60;90.20
18894;DHT22;9579;49.488;8.226;2024-02-28T12:23:57;17.70;89.50
18894;DHT22;9579;49.488;8.226;2024-02-28T12:26:45;18.00;90.70
18894;DHT22;9579;49.488;8.226;2024-02-28T12:29:32;18.30;90.10
18894;DHT22;9579;49.488;8.226;2024-02-28T12:32:20;18.40;88.50
18894;DHT22;9579;49.488;8.226;2024-02-28T12:35:07;18.60;88.60
18894;DHT22;9579;49.488;8.226;2024-02-28T12:37:55;18.70;86.40
18894;DHT22;9579;49.488;8.226;2024-02-28T12:40:42;18.60;86.30
18894;DHT22;9579;49.488;8.226;2024-02-28T12:43:31;18.70;86.90
18894;DHT22;9579;49.488;8.226;2024-02-28T12:46:18;18.80;86.70
18894;DHT22;9579;49.488;8.226;2024-02-28T12:49:05;19.20;86.00
18894;DHT22;9579;49.488;8.226;2024-02-28T12:51:52;19.60;84.20
18894;DHT22;9579;49.488;8.226;2024-02-28T12:54:39;19.60;82.40
18894;DHT22;9579;49.488;8.226;2024-02-28T12:57:27;19.60;82.10
18894;DHT22;9579;49.488;8.226;2024-02-28T13:00:15;19.50;81.00
18894;DHT22;9579;49.488;8.226;2024-02-28T13:03:03;19.60;82.90
18894;DHT22;9579;49.488;8.226;2024-02-28T13:05:50;20.10;81.20
18894;DHT22;9579;49.488;8.226;2024-02-28T13:08:37;20.50;79.30
18894;DHT22;9579;49.488;8.226;2024-02-28T13:11:24;20.40;77.20
18894;DHT22;9579;49.488;8.226;2024-02-28T13:14:11;20.20;78.60
18894;DHT22;9579;49.488;8.226;2024-02-28T13:17:00;20.40;79.80
18894;DHT22;9579;49.488;8.226;2024-02-28T13:19:47;20.80;80.00
18894;DHT22;9579;49.488;8.226;2024-02-28T13:22:34;20.90;78.40
18894;DHT22;9579;49.488;8.226;2024-02-28T13:25:21;21.00;78.60
18894;DHT22;9579;49.488;8.226;2024-02-28T13:28:08;21.00;78.00
18894;DHT22;9579;49.488;8.226;2024-02-28T13:30:55;20.70;77.50
18894;DHT22;9579;49.488;8.226;2024-02-28T13:33:44;21.20;81.40
18894;DHT22;9579;49.488;8.226;2024-02-28T13:36:31;20.80;77.40
18894;DHT22;9579;49.488;8.226;2024-02-28T13:39:21;21.30;79.60
18894;DHT22;9579;49.488;8.226;2024-02-28T13:42:09;20.90;79.10
18894;DHT22;9579;49.488;8.226;2024-02-28T13:44:56;21.40;79.00
18894;DHT22;9579;49.488;8.226;2024-02-28T13:47:43;21.40;77.80
18894;DHT22;9579;49.488;8.226;2024-02-28T13:50:32;21.40;75.50
18894;DHT22;9579;49.488;8.226;2024-02-28T13:53:19;21.50;77.80
18894;DHT22;9579;49.488;8.226;2024-02-28T13:56:06;22.20;77.70
18894;DHT22;9579;49.488;8.226;2024-02-28T13:58:53;22.30;74.60
18894;DHT22;9579;49.488;8.226;2024-02-28T14:01:40;22.60;74.90
18894;DHT22;9579;49.488;8.226;2024-02-28T14:04:27;22.80;72.60
18894;DHT22;9579;49.488;8.226;2024-02-28T14:07:15;22.80;73.00
18894;DHT22;9579;49.488;8.226;2024-02-28T14:10:06;22.50;73.80
18894;DHT22;9579;49.488;8.226;2024-02-28T14:12:53;22.80;72.40
18894;DHT22;9579;49.488;8.226;2024-02-28T14:15:40;23.00;71.50
18894;DHT22;9579;49.488;8.226;2024-02-28T14:18:27;23.40;72.50
18894;DHT22;9579;49.488;8.226;2024-02-28T14:21:14;23.60;70.10
18894;DHT22;9579;49.488;8.226;2024-02-28T14:24:03;23.80;69.40
18894;DHT22;9579;49.488;8.226;2024-02-28T14:26:50;23.70;69.20
18894;DHT22;9579;49.488;8.226;2024-02-28T14:29:37;23.60;67.70
18894;DHT22;9579;49.488;8.226;2024-02-28T14:32:24;23.40;68.90
18894;DHT22;9579;49.488;8.226;2024-02-28T14:35:11;23.30;67.20
18894;DHT22;9579;49.488;8.226;2024-02-28T14:37:58;23.40;67.50
18894;DHT22;9579;49.488;8.226;2024-02-28T14:40:46;23.50;66.20
18894;DHT22;9579;49.488;8.226;2024-02-28T14:43:33;23.60;65.80
18894;DHT22;9579;49.488;8.226;2024-02-28T14:46:20;23.30;64.70
18894;DHT22;9579;49.488;8.226;2024-02-28T14:49:08;23.10;65.20
18894;DHT22;9579;49.488;8.226;2024-02-28T14:51:55;22.70;66.50
18894;DHT22;9579;49.488;8.226;2024-02-28T14:54:42;22.30;65.20
18894;DHT22;9579;49.488;8.226;2024-02-28T14:57:32;21.80;66.10
18894;DHT22;9579;49.488;8.226;2024-02-28T15:00:19;21.50;68.10
18894;DHT22;9579;49.488;8.226;2024-02-28T15:03:06;21.20;67.70
18894;DHT22;9579;49.488;8.226;2024-02-28T15:05:53;21.00;67.70
18894;DHT22;9579;49.488;8.226;2024-02-28T15:08:40;20.70;68.50
18894;DHT22;9579;49.488;8.226;2024-02-28T15:11:28;20.40;68.50
18894;DHT22;9579;49.488;8.226;2024-02-28T15:14:16;20.00;67.70
18894;DHT22;9579;49.488;8.226;2024-02-28T15:17:05;19.70;68.90
18894;DHT22;9579;49.488;8.226;2024-02-28T15:19:52;19.40;69.00
18894;DHT22;9579;49.488;8.226;2024-02-28T15:22:40;18.90;68.70
18894;DHT22;9579;49.488;8.226;2024-02-28T15:25:26;18.80;71.10
18894;DHT22;9579;49.488;8.226;2024-02-28T15:28:14;19.80;73.00
18894;DHT22;9579;49.488;8.226;2024-02-28T15:31:03;18.30;71.70
18894;DHT22;9579;49.488;8.226;2024-02-28T15:33:50;18.00;72.00
18894;DHT22;9579;49.488;8.226;2024-02-28T15:36:37;17.80;74.40
18894;DHT22;9579;49.488;8.226;2024-02-28T15:39:24;17.70;75.40
18894;DHT22;9579;49.488;8.226;2024-02-28T15:42:12;17.50;76.90
18894;DHT22;9579;49.488;8.226;2024-02-28T15:44:59;17.30;75.80
18894;DHT22;9579;49.488;8.226;2024-02-28T15:47:47;17.00;76.10
18894;DHT22;9579;49.488;8.226;2024-02-28T15:50:37;16.90;76.80
18894;DHT22;9579;49.488;8.226;2024-02-28T15:53:24;16.80;77.40
18894;DHT22;9579;49.488;8.226;2024-02-28T15:56:11;16.60;77.80
18894;DHT22;9579;49.488;8.226;2024-02-28T15:58:58;16.60;78.50
18894;DHT22;9579;49.488;8.226;2024-02-28T16:01:45;16.50;77.20
18894;DHT22;9579;49.488;8.226;2024-02-28T16:04:34;16.40;77.20
18894;DHT22;9579;49.488;8.226;2024-02-28T16:07:21;16.40;77.30
18894;DHT22;9579;49.488;8.226;2024-02-28T16:10:08;16.30;76.90
18894;DHT22;9579;49.488;8.226;2024-02-28T16:12:55;16.10;77.50
18894;DHT22;9579;49.488;8.226;2024-02-28T16:15:42;16.00;77.60
18894;DHT22;9579;49.488;8.226;2024-02-28T16:18:29;15.90;78.00
18894;DHT22;9579;49.488;8.226;2024-02-28T16:21:18;16.80;80.40
18894;DHT22;9579;49.488;8.226;2024-02-28T16:24:05;15.80;79.80
18894;DHT22;9579;49.488;8.226;2024-02-28T16:27:05;15.90;79.30
18894;DHT22;9579;49.488;8.226;2024-02-28T16:42:25;14.80;83.20
18894;DHT22;9579;49.488;8.226;2024-02-28T16:44:55;14.80;84.30
18894;DHT22;9579;49.488;8.226;2024-02-28T16:47:42;14.70;85.40
18894;DHT22;9579;49.488;8.226;2024-02-28T16:50:29;14.60;86.70
18894;DHT22;9579;49.488;8.226;2024-02-28T16:53:16;14.50;87.70
18894;DHT22;9579;49.488;8.226;2024-02-28T16:56:04;14.30;87.70
18894;DHT22;9579;49.488;8.226;2024-02-28T16:58:52;14.10;89.00
18894;DHT22;9579;49.488;8.226;2024-02-28T17:01:39;14.00;89.40
18894;DHT22;9579;49.488;8.226;2024-02-28T17:04:26;13.90;90.00
18894;DHT22;9579;49.488;8.226;2024-02-28T17:07:13;13.80;90.20
18894;DHT22;9579;49.488;8.226;2024-02-28T17:10:04;13.70;90.70
18894;DHT22;9579;49.488;8.226;2024-02-28T17:12:52;13.60;90.80
18894;DHT22;9579;49.488;8.226;2024-02-28T17:15:40;13.30;91.00
18894;DHT22;9579;49.488;8.226;2024-02-28T17:18:28;13.30;91.40
18894;DHT22;9579;49.488;8.226;2024-02-28T17:21:15;13.20;91.70
18894;DHT22;9579;49.488;8.226;2024-02-28T17:24:04;13.10;92.00
18894;DHT22;9579;49.488;8.226;2024-02-28T17:26:51;13.00;91.90
18894;DHT22;9579;49.488;8.226;2024-02-28T17:29:38;12.80;92.60
18894;DHT22;9579;49.488;8.226;2024-02-28T17:32:26;12.70;92.60
18894;DHT22;9579;49.488;8.226;2024-02-28T17:35:13;12.60;92.60
18894;DHT22;9579;49.488;8.226;2024-02-28T17:38:00;12.40;92.70
18894;DHT22;9579;49.488;8.226;2024-02-28T17:40:47;12.20;92.70
18894;DHT22;9579;49.488;8.226;2024-02-28T17:43:34;12.10;93.00
18894;DHT22;9579;49.488;8.226;2024-02-28T17:46:21;12.00;93.30
18894;DHT22;9579;49.488;8.226;2024-02-28T17:49:10;11.90;93.30
18894;DHT22;9579;49.488;8.226;2024-02-28T17:51:57;11.70;93.60
18894;DHT22;9579;49.488;8.226;2024-02-28T17:54:44;11.70;93.80
18894;DHT22;9579;49.488;8.226;2024-02-28T17:57:32;11.60;94.00
18894;DHT22;9579;49.488;8.226;2024-02-28T18:00:21;11.40;94.10
18894;DHT22;9579;49.488;8.226;2024-02-28T18:03:26;11.30;94.60
18894;DHT22;9579;49.488;8.226;2024-02-28T18:06:35;11.20;94.60
18894;DHT22;9579;49.488;8.226;2024-02-28T18:09:46;11.00;94.90
18894;DHT22;9579;49.488;8.226;2024-02-28T18:15:56;11.00;95.30
18894;DHT22;9579;49.488;8.226;2024-02-28T18:28:54;10.60;96.20
18894;DHT22;9579;49.488;8.226;2024-02-28T18:36:56;10.30;96.90
18894;DHT22;9579;49.488;8.226;2024-02-28T19:06:34;9.90;97.90
18894;DHT22;9579;49.488;8.226;2024-02-28T19:13:59;9.50;98.70
18894;DHT22;9579;49.488;8.226;2024-02-28T19:36:51;9.10;99.10
18894;DHT22;9579;49.488;8.226;2024-02-28T19:40:07;9.30;98.80
18894;DHT22;9579;49.488;8.226;2024-02-28T19:43:01;9.20;99.00
18894;DHT22;9579;49.488;8.226;2024-02-28T19:50:13;9.10;99.60
18894;DHT22;9579;49.488;8.226;2024-02-28T19:53:16;9.10;99.10
18894;DHT22;9579;49.488;8.226;2024-02-28T19:56:43;9.10;99.10
18894;DHT22;9579;49.488;8.226;2024-02-28T19:59:30;9.10;99.30
18894;DHT22;9579;49.488;8.226;2024-02-28T20:02:42;8.90;99.60
18894;DHT22;9579;49.488;8.226;2024-02-28T20:06:00;8.90;99.60
18894;DHT22;9579;49.488;8.226;2024-02-28T20:08:52;9.00;99.50
18894;DHT22;9579;49.488;8.226;2024-02-28T20:11:57;9.00;99.50
18894;DHT22;9579;49.488;8.226;2024-02-28T20:15:00;8.80;99.80
18894;DHT22;9579;49.488;8.226;2024-02-28T20:17:57;8.70;99.80
18894;DHT22;9579;49.488;8.226;2024-02-28T20:20:59;8.70;99.70
18894;DHT22;9579;49.488;8.226;2024-02-28T20:23:57;8.70;99.90
18894;DHT22;9579;49.488;8.226;2024-02-28T20:30:16;8.60;99.90
18894;DHT22;9579;49.488;8.226;2024-02-28T20:33:39;8.70;99.80
18894;DHT22;9579;49.488;8.226;2024-02-28T20:36:33;8.80;99.80
18894;DHT22;9579;49.488;8.226;2024-02-28T20:39:34;8.70;99.60
18894;DHT22;9579;49.488;8.226;2024-02-28T20:42:22;8.70;99.50
18894;DHT22;9579;49.488;8.226;2024-02-28T20:45:09;8.70;99.90
18894;DHT22;9579;49.488;8.226;2024-02-28T20:47:56;8.60;99.70
18894;DHT22;9579;49.488;8.226;2024-02-28T20:50:43;8.20;99.90
18894;DHT22;9579;49.488;8.226;2024-02-28T20:53:33;8.20;99.90
18894;DHT22;9579;49.488;8.226;2024-02-28T20:56:24;8.20;99.90
18894;DHT22;9579;49.488;8.226;2024-02-28T20:59:12;8.20;99.90
18894;DHT22;9579;49.488;8.226;2024-02-28T21:01:59;8.20;99.90
18894;DHT22;9579;49.488;8.226;2024-02-28T21:04:46;8.10;99.90
18894;DHT22;9579;49.488;8.226;2024-02-28T21:07:33;8.10;99.90
18894;DHT22;9579;49.488;8.226;2024-02-28T21:10:21;8.10;99.90
18894;DHT22;9579;49.488;8.226;2024-02-28T21:13:08;8.10;99.90